sensor_id;sensor_type;location;lat;lon;timestamp;temperature;humidity
6054;DHT22;3055;50.886;14.814;2023-02-26T00:00:29;0.70;89.20
6054;DHT22;3055;50.886;14.814;2023-02-26T00:02:56;0.70;86.70
6054;DHT22;3055;50.886;14.814;2023-02-26T00:05:24;0.70;89.10
6054;DHT22;3055;50.886;14.814;2023-02-26T00:07:51;0.70;96.90
6054;DHT22;3055;50.886;14.814;2023-02-26T00:10:18;0.80;96.70
6054;DHT22;3055;50.886;14.814;2023-02-26T00:12:45;0.80;83.80
6054;DHT22;3055;50.886;14.814;2023-02-26T00:15:13;0.70;91.00
6054;DHT22;3055;50.886;14.814;2023-02-26T00:17:48;0.70;99.90
6054;DHT22;3055;50.886;14.814;2023-02-26T00:20:17;0.70;99.90
6054;DHT22;3055;50.886;14.814;2023-02-26T00:22:45;0.80;99.90
6054;DHT22;3055;50.886;14.814;2023-02-26T00:25:12;0.70;99.90
6054;DHT22;3055;50.886;14.814;2023-02-26T00:27:39;0.70;99.90
6054;DHT22;3055;50.886;14.814;2023-02-26T00:30:08;0.70;99.90
6054;DHT22;3055;50.886;14.814;2023-02-26T00:32:36;0.70;99.90
6054;DHT22;3055;50.886;14.814;2023-02-26T00:35:08;0.70;99.90
6054;DHT22;3055;50.886;14.814;2023-02-26T00:37:52;0.70;99.90
6054;DHT22;3055;50.886;14.814;2023-02-26T00:40:24;0.80;99.90
6054;DHT22;3055;50.886;14.814;2023-02-26T00:42:55;0.70;99.90
6054;DHT22;3055;50.886;14.814;2023-02-26T00:45:23;0.70;99.90
6054;DHT22;3055;50.886;14.814;2023-02-26T00:47:54;0.80;99.90
6054;DHT22;3055;50.886;14.814;2023-02-26T00:50:28;0.70;99.50
6054;DHT22;3055;50.886;14.814;2023-02-26T00:53:01;0.70;99.40
6054;DHT22;3055;50.886;14.814;2023-02-26T00:55:29;0.70;87.00
6054;DHT22;3055;50.886;14.814;2023-02-26T00:57:57;0.70;54.70
6054;DHT22;3055;50.886;14.814;2023-02-26T01:00:24;0.70;62.60
6054;DHT22;3055;50.886;14.814;2023-02-26T01:02:52;0.60;53.50
6054;DHT22;3055;50.886;14.814;2023-02-26T01:05:20;0.60;57.60
6054;DHT22;3055;50.886;14.814;2023-02-26T01:07:53;0.50;61.20
6054;DHT22;3055;50.886;14.814;2023-02-26T01:10:25;0.60;65.80
6054;DHT22;3055;50.886;14.814;2023-02-26T01:12:53;0.60;68.60
6054;DHT22;3055;50.886;14.814;2023-02-26T01:15:22;0.60;56.70
6054;DHT22;3055;50.886;14.814;2023-02-26T01:17:52;0.60;54.30
6054;DHT22;3055;50.886;14.814;2023-02-26T01:20:23;0.50;67.50
6054;DHT22;3055;50.886;14.814;2023-02-26T01:22:54;0.60;81.20
6054;DHT22;3055;50.886;14.814;2023-02-26T01:25:25;0.60;86.90
6054;DHT22;3055;50.886;14.814;2023-02-26T01:27:53;0.60;73.60
6054;DHT22;3055;50.886;14.814;2023-02-26T01:30:23;0.60;76.80
6054;DHT22;3055;50.886;14.814;2023-02-26T01:32:57;0.60;65.40
6054;DHT22;3055;50.886;14.814;2023-02-26T01:35:36;0.50;52.90
6054;DHT22;3055;50.886;14.814;2023-02-26T01:38:16;0.40;50.60
6054;DHT22;3055;50.886;14.814;2023-02-26T01:41:20;0.40;52.70
6054;DHT22;3055;50.886;14.814;2023-02-26T01:44:03;0.50;70.20
6054;DHT22;3055;50.886;14.814;2023-02-26T01:46:35;0.50;69.40
6054;DHT22;3055;50.886;14.814;2023-02-26T01:49:07;0.50;91.70
6054;DHT22;3055;50.886;14.814;2023-02-26T01:51:47;0.50;99.90
6054;DHT22;3055;50.886;14.814;2023-02-26T01:54:17;0.50;99.90
6054;DHT22;3055;50.886;14.814;2023-02-26T01:56:47;0.50;99.90
6054;DHT22;3055;50.886;14.814;2023-02-26T01:59:16;0.50;99.90
6054;DHT22;3055;50.886;14.814;2023-02-26T02:01:49;0.50;99.90
6054;DHT22;3055;50.886;14.814;2023-02-26T02:04:17;0.50;99.90
6054;DHT22;3055;50.886;14.814;2023-02-26T02:06:45;0.50;99.90
6054;DHT22;3055;50.886;14.814;2023-02-26T02:09:12;0.50;99.90
6054;DHT22;3055;50.886;14.814;2023-02-26T02:11:52;0.50;99.90
6054;DHT22;3055;50.886;14.814;2023-02-26T02:14:26;0.60;99.90
6054;DHT22;3055;50.886;14.814;2023-02-26T02:16:59;0.50;99.90
6054;DHT22;3055;50.886;14.814;2023-02-26T02:23:02;0.50;99.90
6054;DHT22;3055;50.886;14.814;2023-02-26T02:28:44;0.50;95.70
6054;DHT22;3055;50.886;14.814;2023-02-26T02:31:21;0.50;77.80
6054;DHT22;3055;50.886;14.814;2023-02-26T02:33:54;0.60;55.10
6054;DHT22;3055;50.886;14.814;2023-02-26T02:36:33;0.50;23.00
6054;DHT22;3055;50.886;14.814;2023-02-26T02:39:05;0.50;27.10
6054;DHT22;3055;50.886;14.814;2023-02-26T02:41:36;0.50;24.50
6054;DHT22;3055;50.886;14.814;2023-02-26T02:44:07;0.50;16.40
6054;DHT22;3055;50.886;14.814;2023-02-26T02:46:39;0.50;4.90
6054;DHT22;3055;50.886;14.814;2023-02-26T02:49:12;0.50;7.50
6054;DHT22;3055;50.886;14.814;2023-02-26T02:51:43;0.40;15.80
6054;DHT22;3055;50.886;14.814;2023-02-26T02:54:13;0.50;16.70
6054;DHT22;3055;50.886;14.814;2023-02-26T02:56:46;0.50;8.40
6054;DHT22;3055;50.886;14.814;2023-02-26T02:59:19;0.50;4.70
6054;DHT22;3055;50.886;14.814;2023-02-26T03:01:52;0.50;1.00
6054;DHT22;3055;50.886;14.814;2023-02-26T03:04:19;0.50;1.00
6054;DHT22;3055;50.886;14.814;2023-02-26T03:06:46;0.40;1.00
6054;DHT22;3055;50.886;14.814;2023-02-26T03:09:14;0.50;1.00
6054;DHT22;3055;50.886;14.814;2023-02-26T03:11:41;0.50;1.00
6054;DHT22;3055;50.886;14.814;2023-02-26T03:14:09;0.50;1.00
6054;DHT22;3055;50.886;14.814;2023-02-26T03:16:51;0.40;1.00
6054;DHT22;3055;50.886;14.814;2023-02-26T03:19:26;0.40;1.00
6054;DHT22;3055;50.886;14.814;2023-02-26T03:22:06;0.50;1.00
6054;DHT22;3055;50.886;14.814;2023-02-26T03:24:37;0.50;1.00
6054;DHT22;3055;50.886;14.814;2023-02-26T03:27:12;0.50;1.00
6054;DHT22;3055;50.886;14.814;2023-02-26T03:29:46;0.50;1.00
6054;DHT22;3055;50.886;14.814;2023-02-26T03:32:20;0.50;1.00
6054;DHT22;3055;50.886;14.814;2023-02-26T03:34:51;0.50;1.00
6054;DHT22;3055;50.886;14.814;2023-02-26T03:37:22;0.50;1.00
6054;DHT22;3055;50.886;14.814;2023-02-26T03:39:53;0.50;1.00
6054;DHT22;3055;50.886;14.814;2023-02-26T03:42:24;0.50;1.00
6054;DHT22;3055;50.886;14.814;2023-02-26T03:44:55;0.50;1.00
6054;DHT22;3055;50.886;14.814;2023-02-26T03:47:26;0.50;1.00
6054;DHT22;3055;50.886;14.814;2023-02-26T03:49:56;0.50;1.00
6054;DHT22;3055;50.886;14.814;2023-02-26T03:52:28;0.50;1.00
6054;DHT22;3055;50.886;14.814;2023-02-26T03:54:58;0.50;1.00
6054;DHT22;3055;50.886;14.814;2023-02-26T03:57:26;0.50;1.00
6054;DHT22;3055;50.886;14.814;2023-02-26T03:59:53;0.40;1.00
6054;DHT22;3055;50.886;14.814;2023-02-26T04:02:26;0.40;1.00
6054;DHT22;3055;50.886;14.814;2023-02-26T04:04:58;0.40;1.00
6054;DHT22;3055;50.886;14.814;2023-02-26T04:07:26;0.40;1.00
6054;DHT22;3055;50.886;14.814;2023-02-26T04:09:53;0.40;1.00
6054;DHT22;3055;50.886;14.814;2023-02-26T04:12:21;0.40;1.00
6054;DHT22;3055;50.886;14.814;2023-02-26T04:14:48;0.40;49.00
6054;DHT22;3055;50.886;14.814;2023-02-26T04:17:16;0.30;95.90
6054;DHT22;3055;50.886;14.814;2023-02-26T04:19:45;0.40;99.90
6054;DHT22;3055;50.886;14.814;2023-02-26T04:22:12;0.30;99.90
6054;DHT22;3055;50.886;14.814;2023-02-26T04:24:40;0.20;99.90
6054;DHT22;3055;50.886;14.814;2023-02-26T04:27:07;0.20;99.90
6054;DHT22;3055;50.886;14.814;2023-02-26T04:29:34;0.20;99.90
6054;DHT22;3055;50.886;14.814;2023-02-26T04:32:02;0.20;99.90
6054;DHT22;3055;50.886;14.814;2023-02-26T04:34:29;0.20;99.90
6054;DHT22;3055;50.886;14.814;2023-02-26T04:36:57;0.20;87.20
6054;DHT22;3055;50.886;14.814;2023-02-26T04:39:24;0.20;53.50
6054;DHT22;3055;50.886;14.814;2023-02-26T04:41:51;0.30;35.10
6054;DHT22;3055;50.886;14.814;2023-02-26T04:44:18;0.30;24.20
6054;DHT22;3055;50.886;14.814;2023-02-26T04:46:45;0.30;15.70
6054;DHT22;3055;50.886;14.814;2023-02-26T04:49:12;0.30;13.40
6054;DHT22;3055;50.886;14.814;2023-02-26T04:51:39;0.30;10.30
6054;DHT22;3055;50.886;14.814;2023-02-26T04:54:08;0.30;1.00
6054;DHT22;3055;50.886;14.814;2023-02-26T04:56:35;0.30;1.00
6054;DHT22;3055;50.886;14.814;2023-02-26T04:59:02;0.40;1.00
6054;DHT22;3055;50.886;14.814;2023-02-26T05:01:29;0.30;1.00
6054;DHT22;3055;50.886;14.814;2023-02-26T05:03:56;0.30;1.00
6054;DHT22;3055;50.886;14.814;2023-02-26T05:06:23;0.20;1.00
6054;DHT22;3055;50.886;14.814;2023-02-26T05:08:50;0.20;1.00
6054;DHT22;3055;50.886;14.814;2023-02-26T05:11:18;0.20;1.00
6054;DHT22;3055;50.886;14.814;2023-02-26T05:13:45;0.30;1.00
6054;DHT22;3055;50.886;14.814;2023-02-26T05:16:12;0.30;1.00
6054;DHT22;3055;50.886;14.814;2023-02-26T05:18:39;0.30;1.00
6054;DHT22;3055;50.886;14.814;2023-02-26T05:21:07;0.30;1.00
6054;DHT22;3055;50.886;14.814;2023-02-26T05:23:34;0.30;1.00
6054;DHT22;3055;50.886;14.814;2023-02-26T05:26:01;0.30;1.00
6054;DHT22;3055;50.886;14.814;2023-02-26T05:28:29;0.30;1.00
6054;DHT22;3055;50.886;14.814;2023-02-26T05:30:58;0.30;1.00
6054;DHT22;3055;50.886;14.814;2023-02-26T05:33:25;0.30;1.00
6054;DHT22;3055;50.886;14.814;2023-02-26T05:35:52;0.30;1.00
6054;DHT22;3055;50.886;14.814;2023-02-26T05:38:20;0.30;1.00
6054;DHT22;3055;50.886;14.814;2023-02-26T05:40:47;0.30;1.00
6054;DHT22;3055;50.886;14.814;2023-02-26T05:43:14;0.40;1.00
6054;DHT22;3055;50.886;14.814;2023-02-26T05:45:43;0.40;1.00
6054;DHT22;3055;50.886;14.814;2023-02-26T05:48:09;0.30;1.00
6054;DHT22;3055;50.886;14.814;2023-02-26T05:50:37;0.40;1.00
6054;DHT22;3055;50.886;14.814;2023-02-26T05:53:04;0.30;1.00
6054;DHT22;3055;50.886;14.814;2023-02-26T05:55:32;0.40;1.00
6054;DHT22;3055;50.886;14.814;2023-02-26T05:57:59;0.40;1.00
6054;DHT22;3055;50.886;14.814;2023-02-26T06:00:26;0.40;1.00
6054;DHT22;3055;50.886;14.814;2023-02-26T06:02:55;0.30;1.00
6054;DHT22;3055;50.886;14.814;2023-02-26T06:05:22;0.30;1.00
6054;DHT22;3055;50.886;14.814;2023-02-26T06:07:49;0.40;1.00
6054;DHT22;3055;50.886;14.814;2023-02-26T06:10:16;0.40;1.00
6054;DHT22;3055;50.886;14.814;2023-02-26T06:12:43;0.40;1.00
6054;DHT22;3055;50.886;14.814;2023-02-26T06:15:11;0.40;1.00
6054;DHT22;3055;50.886;14.814;2023-02-26T06:17:38;0.30;1.00
6054;DHT22;3055;50.886;14.814;2023-02-26T06:20:08;0.40;1.00
6054;DHT22;3055;50.886;14.814;2023-02-26T06:22:35;0.40;1.00
6054;DHT22;3055;50.886;14.814;2023-02-26T06:25:02;0.40;1.00
6054;DHT22;3055;50.886;14.814;2023-02-26T06:27:30;0.40;1.00
6054;DHT22;3055;50.886;14.814;2023-02-26T06:29:57;0.40;1.00
6054;DHT22;3055;50.886;14.814;2023-02-26T06:32:24;0.40;1.00
6054;DHT22;3055;50.886;14.814;2023-02-26T06:34:51;0.40;1.00
6054;DHT22;3055;50.886;14.814;2023-02-26T06:37:19;0.50;1.00
6054;DHT22;3055;50.886;14.814;2023-02-26T06:39:46;0.50;1.00
6054;DHT22;3055;50.886;14.814;2023-02-26T06:42:13;0.50;1.00
6054;DHT22;3055;50.886;14.814;2023-02-26T06:44:42;0.50;1.00
6054;DHT22;3055;50.886;14.814;2023-02-26T06:47:09;0.60;99.90
6054;DHT22;3055;50.886;14.814;2023-02-26T06:49:36;0.60;99.90
6054;DHT22;3055;50.886;14.814;2023-02-26T06:52:03;0.60;99.90
6054;DHT22;3055;50.886;14.814;2023-02-26T06:54:31;0.60;1.00
6054;DHT22;3055;50.886;14.814;2023-02-26T06:56:58;0.50;1.00
6054;DHT22;3055;50.886;14.814;2023-02-26T06:59:27;0.60;40.20
6054;DHT22;3055;50.886;14.814;2023-02-26T07:01:54;0.60;21.20
6054;DHT22;3055;50.886;14.814;2023-02-26T07:04:22;0.60;1.00
6054;DHT22;3055;50.886;14.814;2023-02-26T07:06:49;0.50;1.00
6054;DHT22;3055;50.886;14.814;2023-02-26T07:09:16;0.50;44.10
6054;DHT22;3055;50.886;14.814;2023-02-26T07:11:45;0.50;10.70
6054;DHT22;3055;50.886;14.814;2023-02-26T07:14:12;0.60;99.90
6054;DHT22;3055;50.886;14.814;2023-02-26T07:16:39;0.70;99.90
6054;DHT22;3055;50.886;14.814;2023-02-26T07:19:06;0.70;1.00
6054;DHT22;3055;50.886;14.814;2023-02-26T07:21:33;0.70;99.90
6054;DHT22;3055;50.886;14.814;2023-02-26T07:24:00;0.70;99.90
6054;DHT22;3055;50.886;14.814;2023-02-26T07:26:27;0.70;99.90
6054;DHT22;3055;50.886;14.814;2023-02-26T07:28:56;0.80;1.00
6054;DHT22;3055;50.886;14.814;2023-02-26T07:31:24;0.80;99.90
6054;DHT22;3055;50.886;14.814;2023-02-26T07:33:51;0.70;99.90
6054;DHT22;3055;50.886;14.814;2023-02-26T07:36:18;0.70;99.90
6054;DHT22;3055;50.886;14.814;2023-02-26T07:38:45;0.80;99.90
6054;DHT22;3055;50.886;14.814;2023-02-26T07:41:12;0.80;68.50
6054;DHT22;3055;50.886;14.814;2023-02-26T07:43:39;0.80;1.00
6054;DHT22;3055;50.886;14.814;2023-02-26T07:46:08;0.80;1.00
6054;DHT22;3055;50.886;14.814;2023-02-26T07:48:35;0.80;68.60
6054;DHT22;3055;50.886;14.814;2023-02-26T07:51:03;0.90;1.00
6054;DHT22;3055;50.886;14.814;2023-02-26T07:53:31;0.90;1.00
6054;DHT22;3055;50.886;14.814;2023-02-26T07:55:59;1.00;1.00
6054;DHT22;3055;50.886;14.814;2023-02-26T07:58:26;1.10;1.00
6054;DHT22;3055;50.886;14.814;2023-02-26T08:00:53;1.20;99.90
6054;DHT22;3055;50.886;14.814;2023-02-26T08:03:21;1.20;1.00
6054;DHT22;3055;50.886;14.814;2023-02-26T08:05:48;1.20;1.00
6054;DHT22;3055;50.886;14.814;2023-02-26T08:08:15;1.20;1.00
6054;DHT22;3055;50.886;14.814;2023-02-26T08:10:42;1.30;99.90
6054;DHT22;3055;50.886;14.814;2023-02-26T08:13:09;1.30;1.00
6054;DHT22;3055;50.886;14.814;2023-02-26T08:15:36;1.30;38.10
6054;DHT22;3055;50.886;14.814;2023-02-26T08:18:04;1.40;23.90
6054;DHT22;3055;50.886;14.814;2023-02-26T08:20:32;1.40;99.90
6054;DHT22;3055;50.886;14.814;2023-02-26T08:22:59;1.40;99.90
6054;DHT22;3055;50.886;14.814;2023-02-26T08:25:27;1.40;1.00
6054;DHT22;3055;50.886;14.814;2023-02-26T08:27:54;1.50;1.00
6054;DHT22;3055;50.886;14.814;2023-02-26T08:30:22;1.50;99.90
6054;DHT22;3055;50.886;14.814;2023-02-26T08:32:49;1.50;1.00
6054;DHT22;3055;50.886;14.814;2023-02-26T08:35:17;1.60;99.90
6054;DHT22;3055;50.886;14.814;2023-02-26T08:37:45;1.60;1.00
6054;DHT22;3055;50.886;14.814;2023-02-26T08:40:13;1.60;99.90
6054;DHT22;3055;50.886;14.814;2023-02-26T08:42:40;1.50;1.00
6054;DHT22;3055;50.886;14.814;2023-02-26T08:45:08;1.50;99.90
6054;DHT22;3055;50.886;14.814;2023-02-26T08:47:35;1.50;1.00
6054;DHT22;3055;50.886;14.814;2023-02-26T08:50:02;1.40;1.00
6054;DHT22;3055;50.886;14.814;2023-02-26T08:52:30;1.30;73.10
6054;DHT22;3055;50.886;14.814;2023-02-26T08:54:59;1.30;99.90
6054;DHT22;3055;50.886;14.814;2023-02-26T08:57:26;1.30;99.90
6054;DHT22;3055;50.886;14.814;2023-02-26T08:59:53;1.40;99.90
6054;DHT22;3055;50.886;14.814;2023-02-26T09:02:20;1.40;99.90
6054;DHT22;3055;50.886;14.814;2023-02-26T09:04:47;1.40;99.90
6054;DHT22;3055;50.886;14.814;2023-02-26T09:07:14;1.40;99.90
6054;DHT22;3055;50.886;14.814;2023-02-26T09:09:41;1.40;1.00
6054;DHT22;3055;50.886;14.814;2023-02-26T09:12:10;1.40;99.90
6054;DHT22;3055;50.886;14.814;2023-02-26T09:14:37;1.40;99.90
6054;DHT22;3055;50.886;14.814;2023-02-26T09:17:04;1.40;99.90
6054;DHT22;3055;50.886;14.814;2023-02-26T09:19:31;1.40;99.90
6054;DHT22;3055;50.886;14.814;2023-02-26T09:21:58;1.40;1.00
6054;DHT22;3055;50.886;14.814;2023-02-26T09:24:25;1.40;23.90
6054;DHT22;3055;50.886;14.814;2023-02-26T09:26:52;1.40;8.90
6054;DHT22;3055;50.886;14.814;2023-02-26T09:29:21;1.40;99.90
6054;DHT22;3055;50.886;14.814;2023-02-26T09:31:48;1.40;99.90
6054;DHT22;3055;50.886;14.814;2023-02-26T09:34:15;1.50;1.00
6054;DHT22;3055;50.886;14.814;2023-02-26T09:36:42;1.60;1.00
6054;DHT22;3055;50.886;14.814;2023-02-26T09:39:11;1.60;1.00
6054;DHT22;3055;50.886;14.814;2023-02-26T09:41:40;1.60;99.90
6054;DHT22;3055;50.886;14.814;2023-02-26T09:44:16;1.70;99.90
6054;DHT22;3055;50.886;14.814;2023-02-26T09:46:57;1.70;99.90
6054;DHT22;3055;50.886;14.814;2023-02-26T09:49:33;1.80;55.60
6054;DHT22;3055;50.886;14.814;2023-02-26T09:52:04;1.70;99.90
6054;DHT22;3055;50.886;14.814;2023-02-26T09:54:42;1.70;99.90
6054;DHT22;3055;50.886;14.814;2023-02-26T09:57:17;1.60;99.90
6054;DHT22;3055;50.886;14.814;2023-02-26T09:59:46;1.60;99.90
6054;DHT22;3055;50.886;14.814;2023-02-26T10:02:18;1.60;1.00
6054;DHT22;3055;50.886;14.814;2023-02-26T10:04:50;1.60;1.00
6054;DHT22;3055;50.886;14.814;2023-02-26T10:07:27;1.50;1.00
6054;DHT22;3055;50.886;14.814;2023-02-26T10:10:10;1.50;1.00
6054;DHT22;3055;50.886;14.814;2023-02-26T10:12:40;1.50;1.00
6054;DHT22;3055;50.886;14.814;2023-02-26T10:15:12;1.60;1.00
6054;DHT22;3055;50.886;14.814;2023-02-26T10:17:52;1.60;99.90
6054;DHT22;3055;50.886;14.814;2023-02-26T10:20:26;1.60;83.90
6054;DHT22;3055;50.886;14.814;2023-02-26T10:22:57;1.70;99.90
6054;DHT22;3055;50.886;14.814;2023-02-26T10:25:30;1.90;99.90
6054;DHT22;3055;50.886;14.814;2023-02-26T10:28:02;1.90;1.00
6054;DHT22;3055;50.886;14.814;2023-02-26T10:30:36;1.90;99.90
6054;DHT22;3055;50.886;14.814;2023-02-26T10:33:12;1.80;99.90
6054;DHT22;3055;50.886;14.814;2023-02-26T10:35:49;1.70;90.30
6054;DHT22;3055;50.886;14.814;2023-02-26T10:38:22;1.60;1.00
6054;DHT22;3055;50.886;14.814;2023-02-26T10:40:54;1.60;1.00
6054;DHT22;3055;50.886;14.814;2023-02-26T10:43:27;1.60;23.80
6054;DHT22;3055;50.886;14.814;2023-02-26T10:46:04;1.60;1.00
6054;DHT22;3055;50.886;14.814;2023-02-26T10:48:54;1.80;1.00
6054;DHT22;3055;50.886;14.814;2023-02-26T10:51:27;1.90;99.90
6054;DHT22;3055;50.886;14.814;2023-02-26T10:54:03;2.00;99.90
6054;DHT22;3055;50.886;14.814;2023-02-26T10:56:32;2.10;1.00
6054;DHT22;3055;50.886;14.814;2023-02-26T10:59:00;2.20;15.70
6054;DHT22;3055;50.886;14.814;2023-02-26T11:01:29;2.30;1.00
6054;DHT22;3055;50.886;14.814;2023-02-26T11:04:00;2.60;99.90
6054;DHT22;3055;50.886;14.814;2023-02-26T11:06:31;2.70;99.90
6054;DHT22;3055;50.886;14.814;2023-02-26T11:09:00;2.60;58.50
6054;DHT22;3055;50.886;14.814;2023-02-26T11:11:38;2.40;99.90
6054;DHT22;3055;50.886;14.814;2023-02-26T11:14:06;2.10;1.00
6054;DHT22;3055;50.886;14.814;2023-02-26T11:16:34;2.10;99.90
6054;DHT22;3055;50.886;14.814;2023-02-26T11:19:08;2.10;99.90
6054;DHT22;3055;50.886;14.814;2023-02-26T11:21:38;2.00;1.00
6054;DHT22;3055;50.886;14.814;2023-02-26T11:24:08;1.90;1.00
6054;DHT22;3055;50.886;14.814;2023-02-26T11:26:38;2.10;99.90
6054;DHT22;3055;50.886;14.814;2023-02-26T11:29:14;2.20;99.90
6054;DHT22;3055;50.886;14.814;2023-02-26T11:31:41;2.30;99.90
6054;DHT22;3055;50.886;14.814;2023-02-26T11:34:11;2.30;1.00
6054;DHT22;3055;50.886;14.814;2023-02-26T11:36:40;2.30;16.90
6054;DHT22;3055;50.886;14.814;2023-02-26T11:39:15;2.30;1.00
6054;DHT22;3055;50.886;14.814;2023-02-26T11:41:44;2.30;99.90
6054;DHT22;3055;50.886;14.814;2023-02-26T11:44:14;2.40;99.90
6054;DHT22;3055;50.886;14.814;2023-02-26T11:46:45;2.70;99.90
6054;DHT22;3055;50.886;14.814;2023-02-26T11:49:21;3.00;1.00
6054;DHT22;3055;50.886;14.814;2023-02-26T11:52:02;3.00;99.90
6054;DHT22;3055;50.886;14.814;2023-02-26T11:54:34;2.80;99.90
6054;DHT22;3055;50.886;14.814;2023-02-26T11:57:04;2.80;99.90
6054;DHT22;3055;50.886;14.814;2023-02-26T11:59:33;2.80;51.90
6054;DHT22;3055;50.886;14.814;2023-02-26T12:02:02;2.80;26.10
6054;DHT22;3055;50.886;14.814;2023-02-26T12:04:39;2.70;30.00
6054;DHT22;3055;50.886;14.814;2023-02-26T12:07:11;2.50;99.90
6054;DHT22;3055;50.886;14.814;2023-02-26T12:09:39;2.60;99.90
6054;DHT22;3055;50.886;14.814;2023-02-26T12:12:24;2.70;99.90
6054;DHT22;3055;50.886;14.814;2023-02-26T12:15:07;2.80;60.90
6054;DHT22;3055;50.886;14.814;2023-02-26T12:18:03;2.80;29.80
6054;DHT22;3055;50.886;14.814;2023-02-26T12:20:39;2.80;35.90
6054;DHT22;3055;50.886;14.814;2023-02-26T12:23:30;2.80;1.80
6054;DHT22;3055;50.886;14.814;2023-02-26T12:26:21;2.90;26.90
6054;DHT22;3055;50.886;14.814;2023-02-26T12:29:14;2.90;7.20
6054;DHT22;3055;50.886;14.814;2023-02-26T12:32:08;3.00;99.90
6054;DHT22;3055;50.886;14.814;2023-02-26T12:35:05;3.20;99.90
6054;DHT22;3055;50.886;14.814;2023-02-26T12:37:49;3.30;94.50
6054;DHT22;3055;50.886;14.814;2023-02-26T12:40:37;3.00;1.00
6054;DHT22;3055;50.886;14.814;2023-02-26T12:43:10;2.90;28.50
6054;DHT22;3055;50.886;14.814;2023-02-26T12:45:50;2.80;1.00
6054;DHT22;3055;50.886;14.814;2023-02-26T12:48:57;2.80;1.00
6054;DHT22;3055;50.886;14.814;2023-02-26T12:51:39;2.80;1.00
6054;DHT22;3055;50.886;14.814;2023-02-26T12:54:30;2.90;1.00
6054;DHT22;3055;50.886;14.814;2023-02-26T13:00:12;3.00;1.00
6054;DHT22;3055;50.886;14.814;2023-02-26T13:03:07;2.90;1.00
6054;DHT22;3055;50.886;14.814;2023-02-26T13:05:55;2.90;1.00
6054;DHT22;3055;50.886;14.814;2023-02-26T13:08:32;2.90;1.00
6054;DHT22;3055;50.886;14.814;2023-02-26T13:11:14;2.90;1.00
6054;DHT22;3055;50.886;14.814;2023-02-26T13:13:57;2.90;1.00
6054;DHT22;3055;50.886;14.814;2023-02-26T13:16:37;3.00;1.00
6054;DHT22;3055;50.886;14.814;2023-02-26T13:19:17;3.00;1.00
6054;DHT22;3055;50.886;14.814;2023-02-26T13:21:52;2.90;1.00
6054;DHT22;3055;50.886;14.814;2023-02-26T13:24:23;2.90;1.00
6054;DHT22;3055;50.886;14.814;2023-02-26T13:26:54;2.90;1.00
6054;DHT22;3055;50.886;14.814;2023-02-26T13:29:26;2.90;1.00
6054;DHT22;3055;50.886;14.814;2023-02-26T13:31:57;2.80;1.00
6054;DHT22;3055;50.886;14.814;2023-02-26T13:34:34;2.80;1.00
6054;DHT22;3055;50.886;14.814;2023-02-26T13:37:04;2.90;1.00
6054;DHT22;3055;50.886;14.814;2023-02-26T13:39:39;3.00;1.00
6054;DHT22;3055;50.886;14.814;2023-02-26T13:42:19;3.20;1.00
6054;DHT22;3055;50.886;14.814;2023-02-26T13:44:57;3.40;1.00
6054;DHT22;3055;50.886;14.814;2023-02-26T13:47:49;3.50;1.00
6054;DHT22;3055;50.886;14.814;2023-02-26T13:50:26;3.50;99.90
6054;DHT22;3055;50.886;14.814;2023-02-26T13:52:59;3.50;99.90
6054;DHT22;3055;50.886;14.814;2023-02-26T13:55:41;3.40;99.90
6054;DHT22;3055;50.886;14.814;2023-02-26T13:58:33;3.30;99.90
6054;DHT22;3055;50.886;14.814;2023-02-26T14:01:07;3.20;99.90
6054;DHT22;3055;50.886;14.814;2023-02-26T14:03:36;3.00;99.90
6054;DHT22;3055;50.886;14.814;2023-02-26T14:06:20;2.90;99.90
6054;DHT22;3055;50.886;14.814;2023-02-26T14:08:50;2.90;99.90
6054;DHT22;3055;50.886;14.814;2023-02-26T14:11:42;2.90;99.90
6054;DHT22;3055;50.886;14.814;2023-02-26T14:14:16;3.00;1.00
6054;DHT22;3055;50.886;14.814;2023-02-26T14:16:48;3.20;99.90
6054;DHT22;3055;50.886;14.814;2023-02-26T14:19:31;3.50;99.90
6054;DHT22;3055;50.886;14.814;2023-02-26T14:22:13;3.70;99.90
6054;DHT22;3055;50.886;14.814;2023-02-26T14:24:44;3.70;99.90
6054;DHT22;3055;50.886;14.814;2023-02-26T14:27:30;3.70;99.90
6054;DHT22;3055;50.886;14.814;2023-02-26T14:30:05;3.90;99.90
6054;DHT22;3055;50.886;14.814;2023-02-26T14:32:46;3.80;99.90
6054;DHT22;3055;50.886;14.814;2023-02-26T14:35:17;3.80;99.90
6054;DHT22;3055;50.886;14.814;2023-02-26T14:37:52;4.10;99.90
6054;DHT22;3055;50.886;14.814;2023-02-26T14:40:22;4.40;99.90
6054;DHT22;3055;50.886;14.814;2023-02-26T14:42:53;4.40;99.90
6054;DHT22;3055;50.886;14.814;2023-02-26T14:45:30;4.20;99.90
6054;DHT22;3055;50.886;14.814;2023-02-26T14:48:01;3.90;99.90
6054;DHT22;3055;50.886;14.814;2023-02-26T14:50:37;3.60;99.90
6054;DHT22;3055;50.886;14.814;2023-02-26T14:56:13;4.10;99.90
6054;DHT22;3055;50.886;14.814;2023-02-26T14:58:59;4.40;99.90
6054;DHT22;3055;50.886;14.814;2023-02-26T15:01:48;4.30;99.90
6054;DHT22;3055;50.886;14.814;2023-02-26T15:07:37;3.30;99.90
6054;DHT22;3055;50.886;14.814;2023-02-26T15:10:23;3.00;1.00
6054;DHT22;3055;50.886;14.814;2023-02-26T15:13:05;2.70;37.30
6054;DHT22;3055;50.886;14.814;2023-02-26T15:15:44;2.40;99.90
6054;DHT22;3055;50.886;14.814;2023-02-26T15:18:35;2.10;99.90
6054;DHT22;3055;50.886;14.814;2023-02-26T15:21:15;2.00;99.90
6054;DHT22;3055;50.886;14.814;2023-02-26T15:23:45;1.70;1.00
6054;DHT22;3055;50.886;14.814;2023-02-26T15:26:18;1.50;99.90
6054;DHT22;3055;50.886;14.814;2023-02-26T15:28:46;1.40;38.50
6054;DHT22;3055;50.886;14.814;2023-02-26T15:31:15;1.20;1.00
6054;DHT22;3055;50.886;14.814;2023-02-26T15:33:47;1.20;99.90
6054;DHT22;3055;50.886;14.814;2023-02-26T15:36:17;1.10;99.90
6054;DHT22;3055;50.886;14.814;2023-02-26T15:38:48;1.10;1.00
6054;DHT22;3055;50.886;14.814;2023-02-26T15:41:15;1.10;99.90
6054;DHT22;3055;50.886;14.814;2023-02-26T15:43:47;1.10;99.90
6054;DHT22;3055;50.886;14.814;2023-02-26T15:46:16;1.10;85.00
6054;DHT22;3055;50.886;14.814;2023-02-26T15:48:44;1.30;99.90
6054;DHT22;3055;50.886;14.814;2023-02-26T15:51:13;1.80;99.90
6054;DHT22;3055;50.886;14.814;2023-02-26T15:53:44;2.40;1.00
6054;DHT22;3055;50.886;14.814;2023-02-26T15:56:14;3.00;84.90
6054;DHT22;3055;50.886;14.814;2023-02-26T15:58:47;3.10;1.00
6054;DHT22;3055;50.886;14.814;2023-02-26T16:01:17;3.30;1.00
6054;DHT22;3055;50.886;14.814;2023-02-26T16:03:46;3.10;99.90
6054;DHT22;3055;50.886;14.814;2023-02-26T16:06:18;2.70;99.90
6054;DHT22;3055;50.886;14.814;2023-02-26T16:08:45;2.10;1.00
6054;DHT22;3055;50.886;14.814;2023-02-26T16:11:12;1.80;1.00
6054;DHT22;3055;50.886;14.814;2023-02-26T16:13:43;1.60;57.30
6054;DHT22;3055;50.886;14.814;2023-02-26T16:16:12;1.50;99.90
6054;DHT22;3055;50.886;14.814;2023-02-26T16:18:41;1.50;1.00
6054;DHT22;3055;50.886;14.814;2023-02-26T16:21:22;1.40;1.00
6054;DHT22;3055;50.886;14.814;2023-02-26T16:23:54;1.40;1.00
6054;DHT22;3055;50.886;14.814;2023-02-26T16:26:26;1.30;1.00
6054;DHT22;3055;50.886;14.814;2023-02-26T16:28:58;1.30;1.00
6054;DHT22;3055;50.886;14.814;2023-02-26T16:31:26;1.30;99.90
6054;DHT22;3055;50.886;14.814;2023-02-26T16:33:57;1.30;1.00
6054;DHT22;3055;50.886;14.814;2023-02-26T16:36:29;1.40;99.90
6054;DHT22;3055;50.886;14.814;2023-02-26T16:39:01;1.30;99.90
6054;DHT22;3055;50.886;14.814;2023-02-26T16:41:37;1.40;99.90
6054;DHT22;3055;50.886;14.814;2023-02-26T16:44:35;1.40;99.90
6054;DHT22;3055;50.886;14.814;2023-02-26T16:47:03;1.40;1.00
6054;DHT22;3055;50.886;14.814;2023-02-26T16:49:32;1.40;1.00
6054;DHT22;3055;50.886;14.814;2023-02-26T16:52:01;1.50;99.90
6054;DHT22;3055;50.886;14.814;2023-02-26T16:54:32;1.40;1.00